Time;durP1;ratioP1;P1;durP2;ratioP2;P2;SDS_P1;SDS_P2;PMS_P1;PMS_P2;Temp;Humidity;BMP_temperature;BMP_pressure;BME280_temperature;BME280_humidity;BME280_pressure;Samples;Min_cycle;Max_cycle;Signal;HPM_P1;HPM_P2
2023/09/20 00:00:36;;;;;;;103.30;97.47;;;16.70;99.90;;;;;;4987272;28;20294;-74
2023/09/20 00:03:02;;;;;;;80.67;76.47;;;16.70;99.90;;;;;;4987966;28;20294;-74
2023/09/20 00:05:27;;;;;;;58.70;55.50;;;16.70;99.90;;;;;;4984193;28;20611;-74
2023/09/20 00:07:57;;;;;;;94.37;89.53;;;16.70;99.90;;;;;;4988046;28;20396;-74
2023/09/20 00:10:23;;;;;;;53.60;50.57;;;16.70;99.90;;;;;;4978869;28;20122;-74
2023/09/20 00:12:50;;;;;;;52.63;49.47;;;16.70;99.90;;;;;;4970862;28;20373;-74
2023/09/20 00:15:16;;;;;;;77.00;72.70;;;16.70;99.90;;;;;;4981960;28;20319;-74
2023/09/20 00:17:43;;;;;;;91.20;85.67;;;16.80;99.90;;;;;;4990539;28;20301;-74
2023/09/20 00:20:12;;;;;;;40.87;38.27;;;16.80;99.90;;;;;;4985764;28;20324;-74
2023/09/20 00:22:43;;;;;;;120.43;113.90;;;16.80;99.90;;;;;;4987986;28;20707;-74
2023/09/20 00:25:10;;;;;;;46.77;43.77;;;16.80;99.90;;;;;;4988272;28;20356;-74
2023/09/20 00:27:38;;;;;;;46.60;43.50;;;16.80;99.90;;;;;;4987020;28;20420;-74
2023/09/20 00:30:06;;;;;;;80.47;76.00;;;16.80;99.90;;;;;;4987820;28;20289;-74
2023/09/20 00:32:32;;;;;;;32.87;30.83;;;16.80;99.90;;;;;;4971484;28;20281;-74
2023/09/20 00:34:58;;;;;;;67.53;63.77;;;16.70;99.90;;;;;;4987560;28;20288;-74
2023/09/20 00:37:24;;;;;;;42.67;39.87;;;16.70;99.90;;;;;;4971876;28;20454;-75
2023/09/20 00:39:49;;;;;;;49.37;46.47;;;16.70;99.90;;;;;;4986924;28;20045;-74
2023/09/20 00:42:15;;;;;;;108.50;102.57;;;16.70;99.90;;;;;;4984059;28;20035;-74
2023/09/20 00:44:42;;;;;;;67.53;63.23;;;16.70;99.90;;;;;;4971464;28;20136;-74
2023/09/20 00:47:07;;;;;;;70.70;66.50;;;16.80;99.90;;;;;;4984168;28;20465;-75
2023/09/20 00:49:34;;;;;;;39.37;36.67;;;16.80;99.90;;;;;;4969157;28;20310;-74
2023/09/20 00:52:00;;;;;;;56.00;52.33;;;16.80;99.90;;;;;;4990014;28;20046;-75
2023/09/20 00:54:26;;;;;;;46.03;43.23;;;16.80;99.90;;;;;;4985588;28;20324;-74
2023/09/20 00:56:52;;;;;;;55.27;51.77;;;16.80;99.90;;;;;;4991312;28;20317;-74
2023/09/20 00:59:18;;;;;;;42.23;39.00;;;16.80;99.90;;;;;;4991433;28;20344;-74
2023/09/20 01:01:44;;;;;;;59.20;55.83;;;16.70;99.90;;;;;;4986991;28;20034;-75
2023/09/20 01:04:11;;;;;;;59.83;56.03;;;16.70;99.90;;;;;;4986628;28;20351;-75
2023/09/20 01:06:39;;;;;;;68.30;64.30;;;16.70;99.90;;;;;;4976289;28;20317;-75
2023/09/20 01:09:05;;;;;;;65.67;62.00;;;16.70;99.90;;;;;;4979201;28;20792;-75
2023/09/20 01:11:32;;;;;;;56.23;52.63;;;16.70;99.90;;;;;;4987392;28;20290;-74
2023/09/20 01:13:59;;;;;;;40.30;37.30;;;16.60;99.90;;;;;;4973166;28;20042;-74
2023/09/20 01:16:25;;;;;;;43.90;40.37;;;16.70;99.90;;;;;;4975173;28;20289;-74
2023/09/20 01:18:50;;;;;;;51.27;48.10;;;16.70;99.90;;;;;;4991104;28;20318;-74
2023/09/20 01:21:16;;;;;;;98.53;93.43;;;16.70;99.90;;;;;;4987886;28;20045;-74
2023/09/20 01:23:45;;;;;;;52.50;48.87;;;16.70;99.90;;;;;;4974603;28;20042;-74
2023/09/20 01:26:14;;;;;;;74.97;70.57;;;16.70;99.90;;;;;;4990946;28;20507;-75
2023/09/20 01:28:39;;;;;;;50.40;47.13;;;16.70;99.90;;;;;;4989272;28;20294;-74
2023/09/20 01:31:05;;;;;;;44.30;41.43;;;16.70;99.90;;;;;;4974560;28;20610;-74
2023/09/20 01:33:32;;;;;;;30.53;28.33;;;16.70;99.90;;;;;;4990027;28;20034;-74
2023/09/20 01:35:58;;;;;;;51.10;47.43;;;16.70;99.90;;;;;;4985810;28;20112;-74
2023/09/20 01:38:25;;;;;;;29.80;27.70;;;16.70;99.90;;;;;;4988035;28;20396;-74
2023/09/20 01:40:55;;;;;;;33.37;30.73;;;16.70;99.90;;;;;;4990287;28;20277;-74
2023/09/20 01:43:22;;;;;;;41.87;38.93;;;16.70;99.90;;;;;;4996440;28;20373;-74
2023/09/20 01:45:47;;;;;;;40.43;37.77;;;16.70;99.90;;;;;;4991269;28;20641;-74
2023/09/20 01:48:14;;;;;;;35.67;33.00;;;16.70;99.90;;;;;;4990702;28;20289;-74
2023/09/20 01:50:44;;;;;;;28.30;26.13;;;16.70;99.90;;;;;;4974389;28;20461;-74
2023/09/20 01:53:11;;;;;;;29.63;27.43;;;16.70;99.90;;;;;;5003977;28;20315;-74
2023/09/20 01:55:39;;;;;;;28.03;25.43;;;16.80;99.90;;;;;;4983870;28;20286;-74
2023/09/20 01:58:07;;;;;;;52.27;48.83;;;16.80;99.90;;;;;;4991951;28;20305;-74
2023/09/20 02:00:40;;;;;;;31.40;28.67;;;16.80;99.90;;;;;;4995879;28;20398;-74
2023/09/20 02:03:17;;;;;;;40.20;37.47;;;16.80;99.90;;;;;;4985868;28;20604;-74
2023/09/20 02:05:46;;;;;;;25.83;23.80;;;16.80;99.90;;;;;;4970316;28;20780;-74
2023/09/20 02:08:11;;;;;;;26.93;22.13;;;16.80;99.90;;;;;;4975863;28;20288;-74
2023/09/20 02:10:38;;;;;;;21.47;19.30;;;16.70;99.90;;;;;;4989552;28;20281;-74
2023/09/20 02:13:04;;;;;;;29.80;27.43;;;16.80;99.90;;;;;;4972594;28;20090;-74
2023/09/20 02:15:31;;;;;;;29.57;27.33;;;16.80;99.90;;;;;;4989702;28;20890;-74
2023/09/20 02:17:57;;;;;;;37.70;35.17;;;16.80;99.90;;;;;;4988701;28;20086;-74
2023/09/20 02:20:24;;;;;;;31.80;29.47;;;16.80;99.90;;;;;;4974112;28;20372;-74
2023/09/20 02:22:52;;;;;;;33.97;31.67;;;16.80;99.90;;;;;;4988362;28;20314;-74
2023/09/20 02:25:22;;;;;;;33.40;30.87;;;16.90;99.90;;;;;;4989511;28;20316;-74
2023/09/20 02:27:53;;;;;;;94.80;88.97;;;16.90;99.90;;;;;;4969255;28;20281;-74
2023/09/20 02:30:24;;;;;;;35.70;33.37;;;16.90;99.90;;;;;;4987745;28;20440;-74
2023/09/20 02:32:53;;;;;;;44.53;41.60;;;16.90;99.90;;;;;;4965384;28;20398;-74
2023/09/20 02:35:20;;;;;;;31.80;29.47;;;16.90;99.90;;;;;;4982214;28;20312;-74
2023/09/20 02:37:48;;;;;;;36.83;34.20;;;17.00;99.90;;;;;;4990193;28;20797;-74
2023/09/20 02:40:14;;;;;;;35.47;33.07;;;17.00;99.90;;;;;;5005831;28;20289;-74
2023/09/20 02:42:41;;;;;;;40.87;38.30;;;17.00;99.90;;;;;;4988593;28;20274;-74
2023/09/20 02:45:08;;;;;;;69.90;65.80;;;17.00;99.90;;;;;;4970046;28;20314;-74
2023/09/20 02:47:34;;;;;;;51.37;48.57;;;17.00;99.90;;;;;;4985048;28;20283;-74
2023/09/20 02:50:00;;;;;;;71.50;67.23;;;17.00;99.90;;;;;;4967877;28;20309;-74
2023/09/20 02:52:26;;;;;;;28.97;27.10;;;17.00;99.90;;;;;;4972531;28;20304;-74
2023/09/20 02:54:52;;;;;;;33.77;31.60;;;17.00;99.90;;;;;;4997480;28;20784;-74
2023/09/20 02:57:17;;;;;;;26.97;24.57;;;17.00;99.90;;;;;;4981105;28;20083;-74
2023/09/20 02:59:43;;;;;;;40.73;38.13;;;17.00;99.90;;;;;;4979866;28;20442;-74
2023/09/20 03:02:10;;;;;;;46.10;43.10;;;17.00;99.90;;;;;;4988595;28;20170;-74
2023/09/20 03:04:37;;;;;;;30.63;28.27;;;16.90;99.90;;;;;;4970398;28;20042;-74
2023/09/20 03:07:06;;;;;;;40.73;38.13;;;16.90;99.90;;;;;;4966764;28;20314;-74
2023/09/20 03:09:36;;;;;;;51.77;48.43;;;16.90;99.90;;;;;;4989390;28;20854;-74
2023/09/20 03:12:06;;;;;;;43.10;40.50;;;16.90;99.90;;;;;;4988714;28;20364;-74
2023/09/20 03:14:39;;;;;;;19.20;17.67;;;16.90;99.90;;;;;;4971805;28;20738;-74
2023/09/20 03:17:05;;;;;;;41.40;38.77;;;16.90;99.90;;;;;;4984054;28;20286;-74
2023/09/20 03:19:31;;;;;;;38.13;35.60;;;16.90;99.90;;;;;;4985795;28;20346;-74
2023/09/20 03:22:01;;;;;;;54.70;51.47;;;16.90;99.90;;;;;;4988586;28;20645;-74
2023/09/20 03:24:27;;;;;;;40.67;38.20;;;16.90;99.90;;;;;;4972231;28;20114;-74
2023/09/20 03:26:54;;;;;;;35.53;33.40;;;16.90;99.90;;;;;;4985188;28;20281;-74
2023/09/20 03:29:20;;;;;;;43.00;40.60;;;16.90;99.90;;;;;;4987435;28;20383;-74
2023/09/20 03:31:48;;;;;;;32.00;29.60;;;16.90;99.90;;;;;;4988901;28;20428;-74
2023/09/20 03:34:14;;;;;;;22.93;21.00;;;16.90;99.90;;;;;;4988729;28;20293;-74
2023/09/20 03:36:41;;;;;;;41.77;38.87;;;16.90;99.90;;;;;;4985836;28;20689;-74
2023/09/20 03:39:11;;;;;;;38.23;35.50;;;16.90;99.90;;;;;;4989356;28;20813;-74
2023/09/20 03:41:38;;;;;;;70.50;66.13;;;16.90;99.90;;;;;;4987875;28;20373;-74
2023/09/20 03:44:05;;;;;;;24.27;22.43;;;16.90;99.90;;;;;;4964121;28;20277;-74
2023/09/20 03:46:32;;;;;;;29.47;27.27;;;16.90;99.90;;;;;;4985509;28;20801;-74
2023/09/20 03:48:58;;;;;;;35.03;32.97;;;16.90;99.90;;;;;;4988004;28;20364;-74
2023/09/20 03:51:24;;;;;;;41.53;38.83;;;16.90;99.90;;;;;;4976475;28;20290;-74
2023/09/20 03:53:50;;;;;;;65.70;61.40;;;16.90;99.90;;;;;;4990385;28;21213;-73
2023/09/20 03:56:16;;;;;;;42.60;39.77;;;16.90;99.90;;;;;;4987905;28;20046;-73
2023/09/20 03:58:42;;;;;;;34.23;31.80;;;16.80;99.90;;;;;;4986865;28;20360;-74
2023/09/20 04:01:08;;;;;;;25.93;23.93;;;16.80;99.90;;;;;;4993738;28;20117;-74
2023/09/20 04:03:37;;;;;;;57.87;54.23;;;16.80;99.90;;;;;;4987369;28;20430;-73
2023/09/20 04:06:02;;;;;;;30.70;28.50;;;16.70;99.90;;;;;;4988226;28;20376;-74
2023/09/20 04:08:29;;;;;;;31.30;29.20;;;16.70;99.90;;;;;;4976338;28;20365;-74
2023/09/20 04:10:56;;;;;;;115.50;108.67;;;16.70;99.90;;;;;;4985966;28;20046;-74
2023/09/20 04:13:23;;;;;;;36.53;34.13;;;16.70;99.90;;;;;;4987108;28;20281;-74
2023/09/20 04:15:49;;;;;;;50.47;47.67;;;16.70;99.90;;;;;;4988419;28;20293;-73
2023/09/20 04:18:15;;;;;;;28.83;26.57;;;16.70;99.90;;;;;;4970828;28;20304;-74
2023/09/20 04:20:48;;;;;;;26.83;24.87;;;16.60;99.90;;;;;;4968591;28;20050;-74
2023/09/20 04:23:14;;;;;;;31.17;28.87;;;16.60;99.90;;;;;;4987493;28;20358;-73
2023/09/20 04:25:40;;;;;;;78.70;74.23;;;16.60;99.90;;;;;;4991802;28;20721;-73
2023/09/20 04:28:06;;;;;;;43.03;39.93;;;16.60;99.90;;;;;;4992160;28;20403;-74
2023/09/20 04:30:33;;;;;;;23.50;21.50;;;16.60;99.90;;;;;;4981236;28;20046;-73
2023/09/20 04:32:59;;;;;;;27.77;25.77;;;16.60;99.90;;;;;;4983528;28;20689;-73
2023/09/20 04:35:26;;;;;;;24.60;22.33;;;16.60;99.90;;;;;;4990811;28;20360;-73
2023/09/20 04:37:52;;;;;;;56.50;53.33;;;16.60;99.90;;;;;;4992685;28;20046;-74
2023/09/20 04:40:18;;;;;;;30.23;28.23;;;16.60;99.90;;;;;;4986497;28;20756;-73
2023/09/20 04:42:44;;;;;;;72.67;67.73;;;16.60;99.90;;;;;;4989573;28;21304;-73
2023/09/20 04:45:14;;;;;;;25.40;23.50;;;16.60;99.90;;;;;;4990585;28;20285;-74
2023/09/20 04:47:40;;;;;;;27.13;24.90;;;16.60;99.90;;;;;;4970028;28;20220;-73
2023/09/20 04:50:07;;;;;;;30.17;28.03;;;16.60;99.90;;;;;;4966783;28;20487;-73
2023/09/20 04:52:33;;;;;;;28.50;26.23;;;16.60;99.90;;;;;;4971271;28;20084;-73
2023/09/20 04:54:59;;;;;;;80.50;75.93;;;16.60;99.90;;;;;;4984604;28;20305;-73
2023/09/20 04:57:25;;;;;;;33.40;31.10;;;16.60;99.90;;;;;;4972418;28;20308;-73
2023/09/20 04:59:51;;;;;;;45.23;42.43;;;16.60;99.90;;;;;;4969789;28;20057;-74
2023/09/20 05:02:16;;;;;;;33.97;32.07;;;16.60;99.90;;;;;;4988880;28;20297;-75
2023/09/20 05:04:42;;;;;;;62.53;58.70;;;16.60;99.90;;;;;;4992668;28;20042;-74
2023/09/20 05:07:09;;;;;;;44.70;42.23;;;16.60;99.90;;;;;;4992730;28;20038;-75
2023/09/20 05:09:36;;;;;;;29.83;27.73;;;16.60;99.90;;;;;;4989162;28;20062;-75
2023/09/20 05:12:03;;;;;;;27.23;25.30;;;16.60;99.90;;;;;;4991112;28;20290;-75
2023/09/20 05:14:29;;;;;;;35.30;32.83;;;16.70;99.90;;;;;;4988960;28;20289;-74
2023/09/20 05:16:55;;;;;;;35.47;33.17;;;16.60;99.90;;;;;;4976612;28;20951;-76
2023/09/20 05:19:22;;;;;;;68.87;64.90;;;16.60;99.90;;;;;;4992079;28;20385;-74
2023/09/20 05:21:48;;;;;;;50.67;47.50;;;16.60;99.90;;;;;;4991069;28;20047;-74
2023/09/20 05:24:14;;;;;;;35.77;33.60;;;16.60;99.90;;;;;;4991554;28;20285;-74
2023/09/20 05:26:40;;;;;;;34.57;32.17;;;16.60;99.40;;;;;;4972700;28;20069;-75
2023/09/20 05:29:05;;;;;;;59.03;55.30;;;16.70;99.30;;;;;;4990904;28;20116;-74
2023/09/20 05:31:32;;;;;;;79.23;74.70;;;16.70;99.50;;;;;;4992172;28;20048;-75
2023/09/20 05:33:58;;;;;;;45.93;43.17;;;16.70;99.40;;;;;;4991574;28;20056;-74
2023/09/20 05:36:27;;;;;;;53.83;50.83;;;16.70;99.30;;;;;;4989503;28;20978;-74
2023/09/20 05:38:54;;;;;;;33.87;31.30;;;16.70;99.20;;;;;;4984016;28;20074;-74
2023/09/20 05:41:19;;;;;;;64.50;61.03;;;16.70;99.30;;;;;;4989753;28;20372;-75
2023/09/20 05:43:45;;;;;;;45.77;43.33;;;16.70;99.20;;;;;;4974871;28;20373;-74
2023/09/20 05:46:16;;;;;;;41.03;38.47;;;16.70;99.40;;;;;;4989553;28;20398;-75
2023/09/20 05:48:41;;;;;;;38.10;35.60;;;16.70;99.20;;;;;;4989633;28;20042;-74
2023/09/20 05:51:08;;;;;;;55.93;52.70;;;16.70;99.10;;;;;;4992180;28;20286;-75
2023/09/20 05:53:34;;;;;;;40.33;38.03;;;16.70;99.10;;;;;;4976168;28;20410;-74
2023/09/20 05:56:11;;;;;;;41.90;39.10;;;16.70;99.10;;;;;;4990823;28;20290;-74
2023/09/20 05:58:38;;;;;;;51.53;48.50;;;16.70;99.20;;;;;;4989425;28;20054;-74
2023/09/20 06:01:04;;;;;;;84.70;80.40;;;16.70;99.40;;;;;;4991282;28;20300;-75
2023/09/20 06:03:30;;;;;;;42.73;39.87;;;16.70;99.00;;;;;;4990881;28;20317;-74
2023/09/20 06:05:56;;;;;;;44.97;42.27;;;16.70;99.20;;;;;;4975689;28;20305;-74
2023/09/20 06:08:22;;;;;;;40.77;38.53;;;16.70;99.20;;;;;;4987097;28;20414;-74
2023/09/20 06:10:48;;;;;;;50.53;47.43;;;16.70;99.20;;;;;;4990554;28;20461;-75
2023/09/20 06:13:14;;;;;;;86.70;82.20;;;16.70;99.20;;;;;;4990260;28;20050;-74
2023/09/20 06:15:40;;;;;;;49.83;47.00;;;16.70;99.10;;;;;;4969814;28;20285;-73
2023/09/20 06:18:08;;;;;;;38.83;36.33;;;16.70;98.60;;;;;;4988607;28;20053;-72
2023/09/20 06:20:36;;;;;;;49.63;47.10;;;16.70;98.50;;;;;;4966810;28;20425;-72
2023/09/20 06:23:03;;;;;;;61.37;57.83;;;16.70;98.70;;;;;;4985179;28;20290;-73
2023/09/20 06:25:29;;;;;;;47.93;45.33;;;16.70;98.40;;;;;;4988235;28;20286;-73
2023/09/20 06:27:55;;;;;;;46.83;44.40;;;16.70;98.60;;;;;;4976124;28;20681;-73
2023/09/20 06:30:21;;;;;;;50.43;47.80;;;16.70;98.60;;;;;;4974751;28;20274;-73
2023/09/20 06:32:48;;;;;;;47.27;44.63;;;16.70;98.60;;;;;;4981660;28;20080;-73
2023/09/20 06:35:21;;;;;;;54.03;51.13;;;16.70;98.30;;;;;;4972184;28;20321;-73
2023/09/20 06:37:47;;;;;;;48.13;45.60;;;16.70;98.00;;;;;;4990283;28;20372;-73
2023/09/20 06:40:57;;;;;;;57.20;54.13;;;16.70;98.00;;;;;;4991332;28;20282;-73
2023/09/20 06:43:03;;;;;;;62.30;58.97;;;16.70;97.90;;;;;;4984533;28;20289;-73
2023/09/20 06:45:29;;;;;;;48.40;46.03;;;16.70;97.90;;;;;;4978512;28;20285;-73
2023/09/20 06:47:57;;;;;;;50.13;47.43;;;16.60;97.90;;;;;;4985141;28;20038;-73
2023/09/20 06:50:23;;;;;;;50.23;47.57;;;16.60;98.00;;;;;;4968154;28;20791;-74
2023/09/20 06:52:51;;;;;;;56.53;53.47;;;16.60;97.90;;;;;;4989409;28;20658;-73
2023/09/20 06:55:18;;;;;;;48.93;46.43;;;16.60;97.90;;;;;;4987975;28;20293;-73
2023/09/20 06:57:47;;;;;;;52.87;49.70;;;16.60;98.10;;;;;;4989187;28;20345;-73
2023/09/20 07:00:26;;;;;;;51.60;48.70;;;16.60;97.80;;;;;;4981308;28;20309;-73
2023/09/20 07:02:54;;;;;;;65.93;62.67;;;16.70;97.60;;;;;;4977236;28;20789;-73
2023/09/20 07:05:21;;;;;;;50.27;47.77;;;16.70;97.70;;;;;;4988501;28;20697;-74
2023/09/20 07:07:48;;;;;;;79.97;76.03;;;16.70;97.40;;;;;;4988577;28;20324;-73
2023/09/20 07:10:17;;;;;;;49.77;47.37;;;16.70;97.40;;;;;;4985089;28;20781;-73
2023/09/20 07:12:43;;;;;;;67.57;64.00;;;16.80;97.40;;;;;;4987670;28;20281;-73
2023/09/20 07:15:14;;;;;;;91.13;86.40;;;16.80;96.80;;;;;;4988574;28;20317;-74
2023/09/20 07:17:40;;;;;;;46.60;44.03;;;16.90;96.90;;;;;;4986121;28;20296;-73
2023/09/20 07:20:20;;;;;;;44.47;41.93;;;16.90;96.40;;;;;;4983678;28;20289;-73
2023/09/20 07:22:47;;;;;;;54.30;51.67;;;17.00;96.50;;;;;;5004678;28;20277;-73
2023/09/20 07:25:27;;;;;;;45.47;42.73;;;17.10;95.70;;;;;;4989209;28;20284;-73
2023/09/20 07:27:55;;;;;;;58.63;55.07;;;17.10;95.70;;;;;;4969843;28;20320;-73
2023/09/20 07:30:22;;;;;;;57.47;54.70;;;17.10;95.60;;;;;;4985739;28;20364;-73
2023/09/20 07:32:50;;;;;;;76.27;72.37;;;17.10;95.60;;;;;;4980361;28;20046;-73
2023/09/20 07:38:20;;;;;;;81.13;77.10;;;17.20;95.40;;;;;;5007072;28;20323;-73
2023/09/20 07:40:50;;;;;;;67.97;64.57;;;17.30;94.50;;;;;;4976884;28;20748;-73
2023/09/20 07:43:17;;;;;;;70.63;67.37;;;17.50;94.70;;;;;;5001249;28;20405;-73
2023/09/20 07:45:44;;;;;;;66.70;63.50;;;17.50;94.50;;;;;;4985519;28;20521;-73
2023/09/20 07:48:17;;;;;;;93.73;89.23;;;17.60;93.20;;;;;;5004318;28;20512;-73
2023/09/20 07:50:49;;;;;;;97.87;93.20;;;17.80;93.30;;;;;;4985102;28;20510;-73
2023/09/20 07:53:16;;;;;;;90.63;86.30;;;17.90;93.40;;;;;;4984431;28;20039;-73
2023/09/20 07:55:44;;;;;;;66.83;63.87;;;18.00;92.10;;;;;;4971817;28;20055;-73
2023/09/20 07:58:14;;;;;;;45.00;42.57;;;18.10;91.70;;;;;;4978539;28;20495;-73
2023/09/20 08:00:44;;;;;;;72.60;69.20;;;18.10;91.00;;;;;;4986246;28;20044;-73
2023/09/20 08:03:14;;;;;;;91.77;87.40;;;18.00;90.70;;;;;;4992610;28;20038;-73
2023/09/20 08:05:43;;;;;;;98.67;94.27;;;17.90;90.90;;;;;;4975615;28;20502;-73
2023/09/20 08:08:10;;;;;;;101.40;96.93;;;17.90;91.20;;;;;;4990727;28;20046;-73
2023/09/20 08:10:37;;;;;;;99.67;95.03;;;17.90;91.30;;;;;;4974176;28;20468;-74
2023/09/20 08:13:07;;;;;;;128.67;122.40;;;18.00;91.20;;;;;;4971284;28;20554;-73
2023/09/20 08:15:42;;;;;;;100.73;96.13;;;18.00;90.80;;;;;;4988954;28;20125;-73
2023/09/20 08:20:56;;;;;;;110.87;106.03;;;18.00;90.90;;;;;;5003977;28;20050;-73
2023/09/20 09:01:59;;;;;;;97.75;93.15;;;17.80;90.90;;;;;;4983560;28;20046;-73
2023/09/20 09:04:24;;;;;;;98.70;93.93;;;17.90;90.50;;;;;;4987788;28;20049;-73
2023/09/20 09:06:50;;;;;;;115.77;110.33;;;17.90;90.40;;;;;;4985950;28;20034;-73
2023/09/20 09:09:16;;;;;;;122.63;116.83;;;17.90;90.10;;;;;;4988315;28;20069;-73
2023/09/20 09:11:45;;;;;;;105.03;100.03;;;18.00;89.90;;;;;;4981641;28;20628;-73
2023/09/20 09:14:13;;;;;;;109.77;105.07;;;18.00;89.10;;;;;;4987185;28;20042;-73
2023/09/20 09:16:39;;;;;;;104.40;100.00;;;18.00;88.80;;;;;;4985859;28;20077;-73
2023/09/20 09:19:07;;;;;;;115.70;110.73;;;18.10;89.30;;;;;;5006442;28;20470;-73
2023/09/20 09:21:34;;;;;;;45.60;43.13;;;18.10;89.80;;;;;;4983210;28;20065;-73
2023/09/20 09:24:00;;;;;;;74.03;70.63;;;18.20;89.10;;;;;;4989446;28;20047;-73
2023/09/20 09:26:26;;;;;;;81.67;78.00;;;18.20;88.80;;;;;;4990656;28;20050;-73
2023/09/20 09:28:53;;;;;;;74.93;71.57;;;18.30;88.50;;;;;;4990960;28;20046;-73
2023/09/20 09:31:19;;;;;;;87.33;83.40;;;18.40;88.50;;;;;;4973235;28;20034;-73
2023/09/20 09:33:46;;;;;;;85.20;81.50;;;18.50;88.50;;;;;;4981658;28;20413;-73
2023/09/20 09:36:13;;;;;;;141.77;134.80;;;18.60;88.40;;;;;;4998811;28;20046;-73
2023/09/20 09:38:39;;;;;;;91.60;87.23;;;18.80;87.80;;;;;;4974219;28;20490;-73
2023/09/20 09:41:08;;;;;;;77.37;73.97;;;18.90;86.20;;;;;;4989160;28;20074;-73
2023/09/20 09:43:34;;;;;;;142.13;135.67;;;18.90;86.70;;;;;;4982481;28;20038;-73
2023/09/20 09:46:06;;;;;;;112.67;107.10;;;19.00;86.10;;;;;;4989642;28;20058;-73
2023/09/20 09:48:33;;;;;;;93.27;89.37;;;19.00;85.60;;;;;;4989149;28;20050;-73
2023/09/20 09:51:04;;;;;;;88.87;84.87;;;19.00;86.00;;;;;;4989711;28;20080;-73
2023/09/20 09:53:30;;;;;;;88.63;84.63;;;19.00;86.10;;;;;;4986193;28;20086;-73
2023/09/20 09:55:56;;;;;;;133.77;127.17;;;19.00;86.00;;;;;;4982722;28;20055;-73
2023/09/20 09:58:22;;;;;;;83.03;79.40;;;18.90;85.60;;;;;;4990094;28;20085;-73
2023/09/20 10:00:53;;;;;;;78.73;75.20;;;18.80;85.70;;;;;;4990082;28;20129;-73
2023/09/20 10:03:24;;;;;;;77.33;74.03;;;18.70;85.60;;;;;;4987319;28;20093;-73
2023/09/20 10:05:54;;;;;;;173.70;162.50;;;18.70;86.20;;;;;;4973006;28;20045;-73
2023/09/20 10:08:22;;;;;;;82.80;79.17;;;18.60;85.20;;;;;;4989347;28;20034;-73
2023/09/20 10:10:48;;;;;;;106.23;101.43;;;18.60;85.80;;;;;;4987072;28;20085;-73
2023/09/20 10:13:14;;;;;;;157.70;150.03;;;18.60;85.70;;;;;;4981910;28;20042;-73
2023/09/20 10:15:43;;;;;;;127.07;121.27;;;18.60;85.70;;;;;;4979701;28;20117;-73
2023/09/20 10:18:08;;;;;;;82.60;78.73;;;18.50;85.50;;;;;;5004581;28;20045;-73
2023/09/20 10:21:00;;;;;;;144.07;136.63;;;18.40;86.60;;;;;;4979699;28;20042;-73
2023/09/20 10:23:27;;;;;;;80.53;76.80;;;18.40;85.20;;;;;;4978770;28;20117;-73
2023/09/20 10:26:00;;;;;;;281.40;261.37;;;18.40;86.00;;;;;;4988571;28;20046;-73
2023/09/20 10:28:26;;;;;;;92.27;87.97;;;18.40;86.40;;;;;;4985969;28;20506;-73
2023/09/20 10:31:04;;;;;;;92.43;88.30;;;18.30;86.60;;;;;;4986753;28;20045;-72
2023/09/20 10:33:45;;;;;;;91.07;87.03;;;18.30;86.80;;;;;;4979181;28;20457;-72
2023/09/20 10:36:27;;;;;;;91.20;86.47;;;18.30;86.60;;;;;;4964241;28;20046;-72
2023/09/20 10:39:31;;;;;;;142.27;135.60;;;18.30;87.10;;;;;;4984762;28;20542;-72
2023/09/20 10:42:09;;;;;;;85.20;81.10;;;18.30;87.10;;;;;;5008339;28;20091;-74
2023/09/20 10:44:35;;;;;;;104.03;99.37;;;18.30;87.00;;;;;;5008202;28;20140;-74
2023/09/20 10:47:08;;;;;;;80.13;76.33;;;18.30;87.00;;;;;;4999550;28;20060;-73
2023/09/20 10:49:56;;;;;;;116.10;110.70;;;18.30;87.10;;;;;;4979954;28;20118;-73
2023/09/20 10:52:32;;;;;;;68.77;65.67;;;18.40;86.60;;;;;;4983697;28;20534;-73
2023/09/20 10:55:20;;;;;;;84.40;80.60;;;18.40;86.80;;;;;;4970436;28;20058;-74
2023/09/20 10:57:49;;;;;;;113.03;107.10;;;18.40;86.90;;;;;;4976188;28;20102;-73
2023/09/20 11:00:25;;;;;;;145.60;136.80;;;18.40;86.50;;;;;;4989259;28;20112;-73
2023/09/20 11:02:52;;;;;;;71.70;68.43;;;18.40;86.50;;;;;;4998905;28;20050;-73
2023/09/20 11:05:23;;;;;;;81.70;77.87;;;18.40;86.30;;;;;;4984675;28;20049;-74
2023/09/20 11:07:50;;;;;;;94.73;90.33;;;18.50;86.10;;;;;;4979191;28;20220;-73
2023/09/20 11:10:19;;;;;;;105.07;100.27;;;18.50;85.80;;;;;;4988317;28;20423;-73
2023/09/20 11:12:45;;;;;;;81.23;77.83;;;18.60;85.70;;;;;;4984276;28;20039;-73
2023/09/20 11:15:13;;;;;;;80.13;76.63;;;18.60;86.00;;;;;;4985103;28;20041;-74
2023/09/20 11:17:39;;;;;;;234.53;221.13;;;18.60;86.10;;;;;;4988382;28;20379;-73
2023/09/20 11:20:07;;;;;;;159.27;150.83;;;18.70;85.80;;;;;;4989194;28;20038;-73
2023/09/20 11:22:33;;;;;;;85.00;81.30;;;18.70;85.30;;;;;;4987464;28;20096;-74
2023/09/20 11:25:04;;;;;;;87.37;83.30;;;18.70;85.30;;;;;;4973541;28;20046;-74
2023/09/20 11:27:34;;;;;;;80.80;77.10;;;18.70;85.80;;;;;;4991189;28;20096;-73
2023/09/20 11:30:05;;;;;;;103.87;99.03;;;18.70;85.50;;;;;;4988855;28;20046;-74
2023/09/20 11:32:30;;;;;;;104.90;100.23;;;18.80;85.60;;;;;;4970780;28;20054;-73
2023/09/20 11:34:56;;;;;;;151.57;144.47;;;18.90;85.00;;;;;;4979195;28;20039;-73
2023/09/20 11:37:22;;;;;;;123.80;117.90;;;19.00;84.60;;;;;;4975220;28;20114;-73
2023/09/20 11:39:50;;;;;;;87.73;83.83;;;19.00;84.10;;;;;;4979597;28;20041;-72
2023/09/20 11:42:27;;;;;;;77.67;74.10;;;19.10;83.90;;;;;;4973400;28;20042;-73
2023/09/20 11:45:03;;;;;;;159.90;151.80;;;19.10;84.10;;;;;;4975577;28;20053;-73
2023/09/20 11:47:34;;;;;;;114.00;108.33;;;19.20;83.90;;;;;;4994702;28;20437;-73
2023/09/20 11:50:00;;;;;;;91.77;87.30;;;19.20;83.00;;;;;;4986727;28;20794;-74
2023/09/20 11:52:27;;;;;;;101.90;96.80;;;19.10;82.80;;;;;;4986424;28;20038;-73
2023/09/20 11:55:03;;;;;;;68.97;66.00;;;19.10;83.20;;;;;;4987872;28;20100;-73
2023/09/20 11:57:29;;;;;;;76.87;73.40;;;19.10;83.70;;;;;;4986995;28;20050;-73
2023/09/20 11:59:55;;;;;;;82.60;78.80;;;19.20;83.80;;;;;;4986600;28;20053;-73
2023/09/20 12:02:21;;;;;;;79.17;75.37;;;19.30;83.80;;;;;;4981112;28;20035;-73
2023/09/20 12:04:51;;;;;;;99.10;94.53;;;19.20;83.40;;;;;;4976856;28;20490;-73
2023/09/20 12:07:17;;;;;;;80.30;76.67;;;19.20;82.60;;;;;;4981482;28;20046;-73
2023/09/20 12:09:43;;;;;;;94.00;89.60;;;19.20;82.90;;;;;;4983755;28;20045;-73
2023/09/20 12:12:10;;;;;;;86.60;82.77;;;19.20;82.80;;;;;;4984670;28;20042;-73
2023/09/20 12:14:39;;;;;;;79.23;75.57;;;19.10;82.70;;;;;;4986908;28;20124;-73
2023/09/20 12:17:06;;;;;;;100.47;95.93;;;19.10;83.40;;;;;;4971030;28;20126;-73
2023/09/20 12:19:32;;;;;;;85.27;81.60;;;19.10;83.00;;;;;;4987409;28;20049;-74
2023/09/20 12:22:00;;;;;;;111.63;106.53;;;19.10;83.30;;;;;;4985275;28;20027;-74
2023/09/20 12:24:26;;;;;;;85.50;81.40;;;19.10;83.80;;;;;;5005139;28;20477;-74
2023/09/20 12:26:53;;;;;;;96.93;92.37;;;19.00;83.30;;;;;;4988398;28;20069;-74
2023/09/20 12:29:18;;;;;;;87.00;83.10;;;19.00;83.50;;;;;;4984830;28;20038;-74
2023/09/20 12:31:47;;;;;;;167.50;160.50;;;18.90;83.10;;;;;;4969927;28;20053;-74
2023/09/20 12:34:13;;;;;;;63.33;60.37;;;18.90;83.40;;;;;;4970714;28;20042;-73
2023/09/20 12:36:39;;;;;;;165.13;158.13;;;18.90;84.20;;;;;;4990636;28;20414;-74
2023/09/20 12:39:08;;;;;;;210.03;201.10;;;19.00;84.30;;;;;;4990425;28;20049;-74
2023/09/20 12:41:37;;;;;;;90.87;86.77;;;19.00;84.20;;;;;;4988731;28;20046;-74
2023/09/20 12:44:02;;;;;;;577.33;548.27;;;19.00;83.90;;;;;;4989898;28;20049;-73
2023/09/20 12:46:31;;;;;;;636.90;603.33;;;19.00;84.30;;;;;;4993605;28;20042;-73
2023/09/20 12:48:57;;;;;;;735.63;698.70;;;19.00;84.20;;;;;;4992978;28;20493;-73
2023/09/20 12:51:24;;;;;;;97.40;93.07;;;19.00;83.70;;;;;;4977388;28;20045;-73
2023/09/20 12:53:50;;;;;;;79.57;76.07;;;19.00;84.00;;;;;;4977204;28;20086;-72
2023/09/20 12:56:16;;;;;;;74.03;70.50;;;19.10;84.30;;;;;;4996065;28;20042;-73
2023/09/20 12:58:42;;;;;;;115.30;109.70;;;19.30;83.70;;;;;;4979220;28;20043;-73
2023/09/20 13:01:12;;;;;;;83.27;79.67;;;19.40;83.40;;;;;;4994410;28;20042;-73
2023/09/20 13:03:40;;;;;;;105.60;100.27;;;19.60;83.00;;;;;;4989986;28;20121;-74
2023/09/20 13:06:09;;;;;;;91.23;87.07;;;19.70;82.80;;;;;;4980169;28;20042;-74
2023/09/20 13:08:34;;;;;;;101.33;97.00;;;19.90;82.30;;;;;;4993917;28;20046;-72
2023/09/20 13:11:00;;;;;;;159.13;151.43;;;20.20;81.30;;;;;;4994298;28;20579;-74